createdAt,value
2023-08-26T00:02:34.383Z,0.00
2023-08-26T09:31:36.601Z,12704.00
2023-08-26T09:36:36.581Z,12608.00
2023-08-26T09:41:36.465Z,13088.00
2023-08-26T09:46:36.444Z,12704.00
2023-08-26T09:51:36.327Z,12576.00
2023-08-26T09:56:36.242Z,12608.00
2023-08-26T10:01:36.202Z,12864.00
2023-08-26T10:06:36.145Z,13120.00
2023-08-26T10:11:36.051Z,13120.00
2023-08-26T10:16:36.069Z,13760.00
2023-08-26T10:21:35.906Z,13248.00
2023-08-26T10:26:35.861Z,13376.00
2023-08-26T10:31:35.807Z,13536.00
2023-08-26T10:36:35.743Z,13984.00
2023-08-26T10:41:35.735Z,14368.00
2023-08-26T10:46:35.624Z,15712.00
2023-08-26T10:51:35.512Z,22048.00
2023-08-26T10:56:35.582Z,27840.00
2023-08-26T11:01:35.447Z,28832.00
2023-08-26T11:06:35.351Z,26400.00
2023-08-26T11:11:35.280Z,4000.00
2023-08-26T11:16:35.261Z,5688.00
2023-08-26T11:21:35.159Z,26048.00
2023-08-26T11:26:35.092Z,28320.00
2023-08-26T11:31:35.081Z,11240.00
2023-08-26T11:36:34.982Z,6104.00
2023-08-26T11:41:34.925Z,12352.00
2023-08-26T11:46:34.824Z,19968.00
2023-08-26T11:51:34.800Z,16640.00
2023-08-26T11:56:34.705Z,17344.00
2023-08-26T12:01:34.640Z,4572.00
2023-08-26T12:06:34.598Z,9080.00
2023-08-26T12:11:34.809Z,4980.00
2023-08-26T12:16:34.559Z,5356.00
2023-08-26T12:21:34.378Z,5796.00
2023-08-26T12:26:34.343Z,5776.00
2023-08-26T12:31:34.304Z,4688.00
2023-08-26T12:36:34.246Z,4264.00
2023-08-26T12:41:34.125Z,7468.00
2023-08-26T12:46:34.083Z,5476.00
2023-08-26T12:51:34.013Z,4528.00
2023-08-26T12:56:33.971Z,4068.00
2023-08-26T13:01:33.900Z,4612.00
2023-08-26T13:06:33.867Z,4620.00
2023-08-26T13:11:33.734Z,3296.00
2023-08-26T13:16:33.712Z,4156.00
2023-08-26T13:21:33.613Z,5872.00
2023-08-26T13:26:33.590Z,6500.00
2023-08-26T13:31:33.665Z,5744.00
2023-08-26T13:36:45.905Z,3212.00
2023-08-26T13:41:34.356Z,5468.00
2023-08-26T13:46:33.412Z,3152.00
2023-08-26T13:51:33.225Z,3464.00
2023-08-26T13:56:33.223Z,5276.00
2023-08-26T14:04:02.655Z,3088.00
2023-08-26T14:09:02.550Z,4960.00
2023-08-26T14:14:02.494Z,3512.00
2023-08-26T14:19:02.633Z,5308.00
2023-08-26T14:24:02.344Z,4612.00
2023-08-26T14:29:02.262Z,4396.00
2023-08-26T14:34:02.257Z,4620.00
2023-08-26T14:39:02.139Z,4340.00
2023-08-26T14:44:02.119Z,4212.00
2023-08-26T14:49:02.024Z,4000.00
2023-08-26T14:54:01.993Z,3772.00
2023-08-26T14:59:01.900Z,3780.00
2023-08-26T15:04:01.873Z,1996.00
2023-08-26T15:09:01.744Z,2240.00
2023-08-26T15:14:01.688Z,3472.00
2023-08-26T15:19:01.645Z,3292.00
2023-08-26T15:24:01.571Z,3108.00
2023-08-26T15:29:01.517Z,2936.00
2023-08-26T15:34:01.458Z,2716.00
2023-08-26T15:39:01.347Z,2656.00
2023-08-26T15:44:01.300Z,2660.00
2023-08-26T15:49:01.215Z,1640.00
2023-08-26T15:54:01.178Z,2696.00
2023-08-26T15:59:01.110Z,2120.00
2023-08-26T16:04:01.073Z,2260.00
2023-08-26T16:09:00.984Z,2244.00
2023-08-26T16:14:00.891Z,2068.00
2023-08-26T16:19:00.848Z,1440.00
2023-08-26T16:24:00.808Z,1900.00
2023-08-26T16:29:00.708Z,1328.00
2023-08-26T16:34:00.673Z,1612.00
2023-08-26T16:39:00.619Z,1576.00
2023-08-26T16:44:00.557Z,1124.00
2023-08-26T16:49:00.487Z,1132.00
2023-08-26T16:54:00.406Z,1360.00
2023-08-26T16:59:00.309Z,1488.00
2023-08-26T17:04:00.654Z,1612.00
2023-08-26T17:09:00.207Z,1560.00
2023-08-26T17:14:00.126Z,1480.00
2023-08-26T17:19:00.222Z,1300.00
2023-08-26T17:23:59.977Z,1112.00
2023-08-26T17:28:59.928Z,1012.00
2023-08-26T17:33:59.834Z,884.00
2023-08-26T17:38:59.777Z,788.00
2023-08-26T17:43:59.752Z,700.00
2023-08-26T17:48:59.655Z,588.00
2023-08-26T17:53:59.593Z,496.00
2023-08-26T17:58:59.583Z,412.00
2023-08-26T18:03:59.534Z,332.00
2023-08-26T18:08:59.401Z,256.00
2023-08-26T18:13:59.356Z,192.00
2023-08-26T18:18:59.265Z,136.00
2023-08-26T18:23:59.278Z,92.00
2023-08-26T18:28:59.332Z,56.00
2023-08-26T18:33:59.094Z,32.00
2023-08-26T18:38:58.977Z,16.00
2023-08-26T18:43:58.970Z,8.00
2023-08-26T18:48:58.864Z,4.00
2023-08-26T18:53:58.831Z,4.00
2023-08-26T18:58:58.848Z,0.00
2023-08-26T19:03:58.770Z,0.00
2023-08-26T19:08:58.623Z,0.00
2023-08-26T19:13:58.802Z,0.00
2023-08-26T19:18:58.491Z,0.00
2023-08-26T19:23:58.443Z,0.00
2023-08-26T19:28:58.355Z,0.00
2023-08-26T19:33:58.298Z,0.00
2023-08-26T19:38:58.213Z,0.00
2023-08-26T19:43:58.158Z,0.00
2023-08-26T19:48:58.349Z,0.00
2023-08-26T19:53:58.137Z,0.00
2023-08-26T19:58:58.014Z,0.00
2023-08-26T20:03:57.962Z,0.00
2023-08-26T20:08:57.805Z,0.00
2023-08-26T20:13:57.753Z,0.00
2023-08-26T20:18:57.643Z,0.00
2023-08-26T20:23:57.761Z,0.00
2023-08-26T20:28:57.528Z,0.00
2023-08-26T20:33:57.493Z,0.00
2023-08-26T20:38:57.543Z,0.00
2023-08-26T20:43:57.388Z,0.00
2023-08-26T20:48:57.300Z,0.00
2023-08-26T20:53:57.300Z,0.00
2023-08-26T20:58:57.358Z,0.00
2023-08-26T21:03:57.110Z,0.00
2023-08-26T21:08:56.991Z,0.00
2023-08-26T21:13:56.963Z,0.00
2023-08-26T21:18:56.878Z,0.00
2023-08-26T21:23:56.852Z,0.00
2023-08-26T21:28:56.738Z,0.00
2023-08-26T21:33:56.682Z,0.00
2023-08-26T21:38:56.595Z,0.00
2023-08-26T21:43:56.907Z,0.00
2023-08-26T21:48:56.495Z,0.00
2023-08-26T21:53:56.411Z,0.00
2023-08-26T21:58:56.351Z,0.00
2023-08-26T22:03:56.301Z,0.00
2023-08-26T22:08:56.188Z,0.00
2023-08-26T22:13:56.182Z,0.00
2023-08-26T22:18:56.193Z,0.00
2023-08-26T22:23:56.009Z,0.00
2023-08-26T22:28:55.960Z,0.00
2023-08-26T22:33:55.960Z,0.00
2023-08-26T22:38:59.565Z,0.00
2023-08-26T22:43:56.747Z,0.00
2023-08-26T22:48:55.701Z,0.00
2023-08-26T22:53:55.619Z,0.00
2023-08-26T22:58:55.574Z,0.00
2023-08-26T23:03:55.458Z,0.00
2023-08-26T23:08:55.445Z,0.00
2023-08-26T23:13:55.332Z,0.00
2023-08-26T23:18:55.313Z,0.00
2023-08-26T23:23:55.606Z,0.00
2023-08-26T23:28:55.269Z,0.00
2023-08-26T23:33:57.397Z,0.00
2023-08-26T23:38:55.023Z,0.00
2023-08-26T23:43:54.963Z,0.00
2023-08-26T23:48:54.889Z,0.00
2023-08-26T23:53:54.802Z,0.00
2023-08-26T23:58:54.756Z,0.00
